Time,TemperatureF,DewpointF,PressureIn,WindDirection,WindDirectionDegrees,WindSpeedMPH,WindSpeedGustMPH,Humidity,HourlyPrecipIn,Conditions,Clouds,dailyrainin,SoftwareType,DateUTC
2013-03-25 00:02:00,52.8,50.0,29.66,South,191,1.0,4.0,89,0.00,,,0.00,weatherlink.com 1.10,2013-03-24 23:02:00,
2013-03-25 00:17:00,52.6,50.0,29.66,South,183,0.0,2.0,90,0.00,,,0.00,weatherlink.com 1.10,2013-03-24 23:17:00,
2013-03-25 00:32:00,52.3,50.0,29.65,South,184,0.0,0.0,90,0.00,,,0.00,weatherlink.com 1.10,2013-03-24 23:32:00,
2013-03-25 00:47:00,51.9,49.0,29.64,NNE,12,3.0,3.0,91,0.00,,,0.00,weatherlink.com 1.10,2013-03-24 23:47:00,
2013-03-25 01:02:00,51.4,49.0,29.64,North,5,4.0,5.0,92,0.00,,,0.00,weatherlink.com 1.10,2013-03-25 00:02:00,
2013-03-25 01:17:00,51.0,49.0,29.64,NE,34,2.0,4.0,92,0.00,,,0.00,weatherlink.com 1.10,2013-03-25 00:17:00,
2013-03-25 01:32:00,50.3,48.0,29.64,ENE,64,4.0,5.0,93,0.00,,,0.00,weatherlink.com 1.10,2013-03-25 00:32:00,
2013-03-25 01:47:00,50.0,48.0,29.64,NE,51,2.0,8.0,94,0.00,,,0.00,weatherlink.com 1.10,2013-03-25 00:47:00,
2013-03-25 02:02:00,49.9,48.0,29.64,NE,34,2.0,4.0,94,0.00,,,0.00,weatherlink.com 1.10,2013-03-25 01:02:00,
2013-03-25 02:17:00,49.3,48.0,29.65,NE,51,0.0,2.0,94,0.00,,,0.00,weatherlink.com 1.10,2013-03-25 01:17:00,
2013-03-25 02:32:00,48.6,47.0,29.65,SSW,212,2.0,6.0,94,0.00,,,0.00,weatherlink.com 1.10,2013-03-25 01:32:00,
2013-03-25 02:47:00,48.7,47.0,29.66,SW,218,0.0,2.0,94,0.00,,,0.00,weatherlink.com 1.10,2013-03-25 01:47:00,
2013-03-25 03:02:00,48.9,48.0,29.65,SW,224,0.0,0.0,95,0.00,,,0.00,weatherlink.com 1.10,2013-03-25 02:02:00,
2013-03-25 03:17:00,49.1,48.0,29.65,South,176,0.0,0.0,95,0.00,,,0.00,weatherlink.com 1.10,2013-03-25 02:17:00,
2013-03-25 03:32:00,48.5,47.0,29.65,SSE,163,0.0,0.0,95,0.00,,,0.00,weatherlink.com 1.10,2013-03-25 02:32:00,
2013-03-25 03:47:00,47.7,46.0,29.65,SSE,165,0.0,0.0,94,0.00,,,0.00,weatherlink.com 1.10,2013-03-25 02:47:00,
2013-03-25 04:02:00,47.4,46.0,29.65,ESE,105,0.0,0.0,95,0.00,,,0.00,weatherlink.com 1.10,2013-03-25 03:02:00,
2013-03-25 04:17:00,47.0,46.0,29.66,ESE,104,0.0,0.0,96,0.00,,,0.00,weatherlink.com 1.10,2013-03-25 03:17:00,
2013-03-25 04:32:00,48.3,47.0,29.66,NE,47,3.0,5.0,96,0.00,,,0.00,weatherlink.com 1.10,2013-03-25 03:32:00,
2013-03-25 04:47:00,48.5,47.0,29.66,East,79,2.0,4.0,95,0.00,,,0.00,weatherlink.com 1.10,2013-03-25 03:47:00,
2013-03-25 05:02:00,50.3,48.0,29.67,East,86,0.0,3.0,90,0.00,,,0.00,weatherlink.com 1.10,2013-03-25 04:02:00,
2013-03-25 05:17:00,49.6,47.0,29.68,SSW,207,0.0,0.0,90,0.00,,,0.00,weatherlink.com 1.10,2013-03-25 04:17:00,
2013-03-25 05:33:00,50.7,47.0,29.68,WSW,255,0.0,0.0,88,0.00,,,0.00,weatherlink.com 1.10,2013-03-25 04:33:00,
2013-03-25 05:48:00,50.9,47.0,29.69,WNW,291,0.0,2.0,86,0.00,,,0.00,weatherlink.com 1.10,2013-03-25 04:48:00,
2013-03-25 06:03:00,50.7,46.0,29.70,ENE,63,3.0,4.0,83,0.00,,,0.00,weatherlink.com 1.10,2013-03-25 05:03:00,
2013-03-25 06:18:00,51.0,45.0,29.70,ENE,72,0.0,5.0,81,0.00,,,0.00,weatherlink.com 1.10,2013-03-25 05:18:00,
2013-03-25 06:33:00,50.1,45.0,29.71,SW,228,0.0,0.0,83,0.00,,,0.00,weatherlink.com 1.10,2013-03-25 05:33:00,
2013-03-25 06:48:00,50.3,45.0,29.71,SSE,160,0.0,0.0,82,0.00,,,0.00,weatherlink.com 1.10,2013-03-25 05:48:00,
2013-03-25 07:03:00,49.8,45.0,29.72,East,94,2.0,2.0,83,0.00,,,0.00,weatherlink.com 1.10,2013-03-25 06:03:00,
2013-03-25 07:18:00,49.1,45.0,29.72,ESE,104,7.0,9.0,85,0.00,,,0.00,weatherlink.com 1.10,2013-03-25 06:18:00,
2013-03-25 07:33:00,51.2,46.0,29.73,East,101,5.0,9.0,81,0.00,,,0.00,weatherlink.com 1.10,2013-03-25 06:33:00,
2013-03-25 07:48:00,54.6,47.0,29.73,East,101,4.0,13.0,75,0.00,,,0.00,weatherlink.com 1.10,2013-03-25 06:48:00,
2013-03-25 08:03:00,55.9,47.0,29.73,ESE,110,5.0,11.0,72,0.00,,,0.00,weatherlink.com 1.10,2013-03-25 07:03:00,
2013-03-25 08:18:00,56.3,48.0,29.73,ESE,123,11.0,14.0,73,0.00,,,0.00,weatherlink.com 1.10,2013-03-25 07:18:00,
2013-03-25 08:33:00,57.2,47.0,29.73,SE,125,13.0,17.0,70,0.00,,,0.00,weatherlink.com 1.10,2013-03-25 07:33:00,
2013-03-25 08:48:00,58.1,47.0,29.73,East,101,17.0,21.0,67,0.00,,,0.00,weatherlink.com 1.10,2013-03-25 07:48:00,
2013-03-25 09:03:00,58.6,47.0,29.74,ESE,115,15.0,23.0,65,0.00,,,0.00,weatherlink.com 1.10,2013-03-25 08:03:00,
2013-03-25 09:18:00,59.1,47.0,29.74,East,90,14.0,22.0,65,0.00,,,0.00,weatherlink.com 1.10,2013-03-25 08:18:00,
2013-03-25 09:33:00,59.6,47.0,29.74,ESE,117,18.0,20.0,63,0.00,,,0.00,weatherlink.com 1.10,2013-03-25 08:33:00,
2013-03-25 10:03:00,60.5,45.0,29.76,East,82,14.0,26.0,58,0.00,,,0.00,weatherlink.com 1.10,2013-03-25 09:03:00,
2013-03-25 10:19:00,60.8,43.0,29.77,ESE,115,23.0,27.0,53,0.00,,,0.00,weatherlink.com 1.10,2013-03-25 09:19:00,
2013-03-25 10:34:00,61.2,45.0,29.77,ESE,121,22.0,25.0,56,0.00,,,0.00,weatherlink.com 1.10,2013-03-25 09:34:00,
2013-03-25 10:49:00,61.4,44.0,29.77,ESE,111,11.0,24.0,54,0.00,,,0.00,weatherlink.com 1.10,2013-03-25 09:49:00,
2013-03-25 11:04:00,61.0,45.0,29.77,ESE,117,11.0,27.0,55,0.00,,,0.00,weatherlink.com 1.10,2013-03-25 10:04:00,
2013-03-25 11:19:00,61.8,44.0,29.77,ESE,119,13.0,22.0,52,0.00,,,0.00,weatherlink.com 1.10,2013-03-25 10:19:00,
2013-03-25 11:34:00,62.1,45.0,29.77,ESE,119,12.0,22.0,53,0.00,,,0.00,weatherlink.com 1.10,2013-03-25 10:34:00,
2013-03-25 11:49:00,61.9,43.0,29.77,SE,127,16.0,26.0,51,0.00,,,0.00,weatherlink.com 1.10,2013-03-25 10:49:00,
2013-03-25 12:04:00,62.1,43.0,29.77,ESE,113,23.0,28.0,50,0.00,,,0.00,weatherlink.com 1.10,2013-03-25 11:04:00,
2013-03-25 12:19:00,62.6,41.0,29.76,ESE,121,20.0,30.0,46,0.00,,,0.00,weatherlink.com 1.10,2013-03-25 11:19:00,
2013-03-25 12:34:00,62.8,44.0,29.76,East,98,8.0,24.0,51,0.00,,,0.00,weatherlink.com 1.10,2013-03-25 11:34:00,
2013-03-25 12:49:00,63.2,43.0,29.77,SE,124,10.0,26.0,48,0.00,,,0.00,weatherlink.com 1.10,2013-03-25 11:49:00,
2013-03-25 13:04:00,63.3,43.0,29.76,SE,127,11.0,32.0,47,0.00,,,0.00,weatherlink.com 1.10,2013-03-25 12:04:00,
2013-03-25 13:19:00,63.8,44.0,29.76,ESE,111,21.0,26.0,49,0.00,,,0.00,weatherlink.com 1.10,2013-03-25 12:19:00,
2013-03-25 13:34:00,64.1,46.0,29.76,East,101,12.0,23.0,52,0.00,,,0.00,weatherlink.com 1.10,2013-03-25 12:34:00,
2013-03-25 13:49:00,63.7,46.0,29.75,ESE,107,9.0,22.0,53,0.00,,,0.00,weatherlink.com 1.10,2013-03-25 12:49:00,
2013-03-25 14:04:00,64.1,44.0,29.74,ENE,66,16.0,22.0,49,0.00,,,0.00,weatherlink.com 1.10,2013-03-25 13:04:00,
2013-03-25 14:19:00,64.5,46.0,29.73,ENE,59,11.0,17.0,51,0.00,,,0.00,weatherlink.com 1.10,2013-03-25 13:19:00,
2013-03-25 14:34:00,64.3,45.0,29.73,ENE,70,13.0,23.0,50,0.00,,,0.00,weatherlink.com 1.10,2013-03-25 13:34:00,
2013-03-25 14:49:00,64.7,44.0,29.74,East,90,13.0,23.0,48,0.00,,,0.00,weatherlink.com 1.10,2013-03-25 13:49:00,
2013-03-25 15:04:00,64.9,46.0,29.73,NE,56,11.0,20.0,51,0.00,,,0.00,weatherlink.com 1.10,2013-03-25 14:04:00,
2013-03-25 15:19:00,63.6,46.0,29.74,NE,37,15.0,29.0,54,0.00,,,0.00,weatherlink.com 1.10,2013-03-25 14:19:00,
2013-03-25 15:34:00,62.3,46.0,29.74,NNE,16,21.0,29.0,56,0.00,,,0.00,weatherlink.com 1.10,2013-03-25 14:34:00,
2013-03-25 15:49:00,61.9,47.0,29.74,ENE,60,13.0,28.0,58,0.00,,,0.00,weatherlink.com 1.10,2013-03-25 14:49:00,
2013-03-25 16:04:00,61.8,47.0,29.74,ENE,69,13.0,24.0,59,0.00,,,0.00,weatherlink.com 1.10,2013-03-25 15:04:00,
2013-03-25 16:34:00,62.0,45.0,29.74,East,86,18.0,22.0,54,0.00,,,0.00,weatherlink.com 1.10,2013-03-25 15:34:00,
2013-03-25 16:49:00,62.0,45.0,29.75,ENE,72,18.0,26.0,54,0.00,,,0.00,weatherlink.com 1.10,2013-03-25 15:49:00,
2013-03-25 17:04:00,61.6,45.0,29.75,ENE,77,10.0,23.0,54,0.00,,,0.00,weatherlink.com 1.10,2013-03-25 16:04:00,
2013-03-25 17:19:00,60.9,45.0,29.74,East,80,16.0,22.0,56,0.00,,,0.00,weatherlink.com 1.10,2013-03-25 16:19:00,
2013-03-25 17:34:00,60.8,43.0,29.74,NE,53,22.0,26.0,53,0.00,,,0.00,weatherlink.com 1.10,2013-03-25 16:34:00,
2013-03-25 17:49:00,60.8,44.0,29.74,East,82,18.0,27.0,54,0.00,,,0.00,weatherlink.com 1.10,2013-03-25 16:49:00,
2013-03-25 18:04:00,60.0,45.0,29.73,ENE,63,23.0,23.0,58,0.00,,,0.00,weatherlink.com 1.10,2013-03-25 17:04:00,
2013-03-25 18:18:00,59.0,46.0,29.74,ENE,63,14.0,22.0,62,0.00,,,0.00,weatherlink.com 1.10,2013-03-25 17:18:00,
2013-03-25 18:33:00,58.1,46.0,29.74,ENE,59,13.0,20.0,65,0.00,,,0.00,weatherlink.com 1.10,2013-03-25 17:33:00,
2013-03-25 18:49:00,58.0,47.0,29.74,ENE,68,7.0,19.0,66,0.00,,,0.00,weatherlink.com 1.10,2013-03-25 17:49:00,
2013-03-25 19:04:00,57.9,47.0,29.74,NNE,30,9.0,16.0,66,0.00,,,0.00,weatherlink.com 1.10,2013-03-25 18:04:00,
2013-03-25 19:19:00,57.3,49.0,29.74,NE,56,10.0,16.0,74,0.00,,,0.00,weatherlink.com 1.10,2013-03-25 18:19:00,
2013-03-25 19:34:00,56.9,50.0,29.74,NE,50,15.0,19.0,78,0.00,,,0.00,weatherlink.com 1.10,2013-03-25 18:34:00,
2013-03-25 19:49:00,57.0,51.0,29.73,NE,50,14.0,19.0,79,0.00,,,0.00,weatherlink.com 1.10,2013-03-25 18:49:00,
2013-03-25 20:04:00,57.1,51.0,29.73,ENE,61,13.0,22.0,80,0.00,,,0.00,weatherlink.com 1.10,2013-03-25 19:04:00,
2013-03-25 20:19:00,56.7,51.0,29.73,NNE,25,13.0,18.0,82,0.00,,,0.00,weatherlink.com 1.10,2013-03-25 19:19:00,
2013-03-25 20:34:00,56.5,51.0,29.74,NNE,23,14.0,19.0,82,0.00,,,0.00,weatherlink.com 1.10,2013-03-25 19:34:00,
2013-03-25 20:49:00,56.4,51.0,29.73,NE,34,12.0,21.0,82,0.00,,,0.00,weatherlink.com 1.10,2013-03-25 19:49:00,
2013-03-25 21:04:00,56.6,51.0,29.74,NE,42,9.0,17.0,82,0.00,,,0.00,weatherlink.com 1.10,2013-03-25 20:04:00,
2013-03-25 21:19:00,56.3,51.0,29.73,NNE,14,5.0,14.0,83,0.00,,,0.00,weatherlink.com 1.10,2013-03-25 20:19:00,
2013-03-25 21:34:00,56.2,51.0,29.73,NE,54,8.0,14.0,83,0.00,,,0.00,weatherlink.com 1.10,2013-03-25 20:34:00,
2013-03-25 21:49:00,56.6,51.0,29.73,NE,43,11.0,17.0,82,0.00,,,0.00,weatherlink.com 1.10,2013-03-25 20:49:00,
2013-03-25 22:04:00,56.6,51.0,29.72,ENE,58,13.0,15.0,82,0.00,,,0.00,weatherlink.com 1.10,2013-03-25 21:04:00,
2013-03-25 22:19:00,56.8,51.0,29.72,NE,47,17.0,19.0,82,0.00,,,0.00,weatherlink.com 1.10,2013-03-25 21:19:00,
2013-03-25 22:34:00,57.6,51.0,29.71,ENE,71,11.0,19.0,79,0.00,,,0.00,weatherlink.com 1.10,2013-03-25 21:34:00,
2013-03-25 22:50:00,57.7,51.0,29.70,ENE,64,7.0,16.0,79,0.00,,,0.00,weatherlink.com 1.10,2013-03-25 21:50:00,
2013-03-25 23:04:00,57.9,51.0,29.70,NE,53,13.0,19.0,78,0.00,,,0.00,weatherlink.com 1.10,2013-03-25 22:04:00,
2013-03-25 23:19:00,58.0,51.0,29.69,NE,46,19.0,23.0,78,0.00,,,0.00,weatherlink.com 1.10,2013-03-25 22:19:00,
2013-03-25 23:34:00,58.0,51.0,29.69,ENE,77,13.0,18.0,78,0.00,,,0.00,weatherlink.com 1.10,2013-03-25 22:34:00,
2013-03-25 23:49:00,57.8,51.0,29.68,NE,49,19.0,20.0,79,0.00,,,0.00,weatherlink.com 1.10,2013-03-25 22:49:00,